Lake Crest, Illinois
Current Conditions -  °F | °C
As of 2:35 AM on Thursday 27 Nov 2014 (Local Time) from KMWA Reporting Station
Haze Haze  
Wind Chill: 28°   Ceiling: 300
Heat Index: 34°   Visibility: 3mi
Dew Point: 32°   Wind: 7mph
Humidity: 93%   Direction: 340°NNW
Pressure: 30.25"   Gusts: NA
Location:  37.6398°N, 88.8751°W
Report Text: KMWA 270835Z AUTO 34006KT 3SM BR OVC003 01/00 A3025 RMK AO2
Loading
Personal Weather Stations






























Interactive Weather Map New forecast layout! Learn more

10-Day Weather Forecast

Advertisements
Track Severe Weather on mobile